sensor_id;sensor_type;location;lat;lon;timestamp;P1;durP1;ratioP1;P2;durP2;ratioP2
21671;SDS011;10997;52.242;8.168;2023-12-28T00:00:55;3.70;;;2.47;;
21671;SDS011;10997;52.242;8.168;2023-12-28T00:05:56;5.65;;;2.50;;
21671;SDS011;10997;52.242;8.168;2023-12-28T00:10:56;4.60;;;2.58;;
21671;SDS011;10997;52.242;8.168;2023-12-28T00:15:57;5.70;;;2.53;;
21671;SDS011;10997;52.242;8.168;2023-12-28T00:20:57;5.75;;;2.78;;
21671;SDS011;10997;52.242;8.168;2023-12-28T00:25:58;6.10;;;3.03;;
21671;SDS011;10997;52.242;8.168;2023-12-28T00:30:59;2.95;;;2.60;;
21671;SDS011;10997;52.242;8.168;2023-12-28T00:35:59;4.80;;;2.97;;
21671;SDS011;10997;52.242;8.168;2023-12-28T00:41:00;5.60;;;2.92;;
21671;SDS011;10997;52.242;8.168;2023-12-28T00:46:00;6.00;;;3.30;;
21671;SDS011;10997;52.242;8.168;2023-12-28T00:51:02;5.75;;;3.42;;
21671;SDS011;10997;52.242;8.168;2023-12-28T00:56:06;3.50;;;3.10;;
21671;SDS011;10997;52.242;8.168;2023-12-28T01:01:09;4.78;;;3.33;;
21671;SDS011;10997;52.242;8.168;2023-12-28T01:06:10;5.20;;;3.50;;
21671;SDS011;10997;52.242;8.168;2023-12-28T01:11:11;6.75;;;3.33;;
21671;SDS011;10997;52.242;8.168;2023-12-28T01:16:12;5.05;;;3.28;;
21671;SDS011;10997;52.242;8.168;2023-12-28T01:21:13;4.47;;;3.40;;
21671;SDS011;10997;52.242;8.168;2023-12-28T01:26:14;6.22;;;3.60;;
21671;SDS011;10997;52.242;8.168;2023-12-28T01:31:15;5.50;;;3.63;;
21671;SDS011;10997;52.242;8.168;2023-12-28T01:36:18;8.98;;;3.80;;
21671;SDS011;10997;52.242;8.168;2023-12-28T01:41:20;8.48;;;3.78;;
21671;SDS011;10997;52.242;8.168;2023-12-28T01:46:21;6.20;;;3.80;;
21671;SDS011;10997;52.242;8.168;2023-12-28T01:51:21;5.32;;;3.70;;
21671;SDS011;10997;52.242;8.168;2023-12-28T01:56:24;6.38;;;4.18;;
21671;SDS011;10997;52.242;8.168;2023-12-28T02:01:25;7.95;;;3.85;;
21671;SDS011;10997;52.242;8.168;2023-12-28T02:06:26;6.07;;;4.00;;
21671;SDS011;10997;52.242;8.168;2023-12-28T02:11:26;6.93;;;4.40;;
21671;SDS011;10997;52.242;8.168;2023-12-28T02:21:38;7.50;;;4.18;;
21671;SDS011;10997;52.242;8.168;2023-12-28T02:26:40;7.32;;;4.30;;
21671;SDS011;10997;52.242;8.168;2023-12-28T02:31:44;5.75;;;4.00;;
21671;SDS011;10997;52.242;8.168;2023-12-28T02:36:59;6.15;;;3.92;;
21671;SDS011;10997;52.242;8.168;2023-12-28T02:42:02;5.63;;;3.60;;
21671;SDS011;10997;52.242;8.168;2023-12-28T02:47:03;5.47;;;3.78;;
21671;SDS011;10997;52.242;8.168;2023-12-28T02:52:04;8.60;;;3.80;;
21671;SDS011;10997;52.242;8.168;2023-12-28T02:57:05;5.05;;;3.42;;
21671;SDS011;10997;52.242;8.168;2023-12-28T03:02:05;8.38;;;3.80;;
21671;SDS011;10997;52.242;8.168;2023-12-28T03:07:07;7.05;;;3.80;;
21671;SDS011;10997;52.242;8.168;2023-12-28T03:12:08;6.60;;;3.90;;
21671;SDS011;10997;52.242;8.168;2023-12-28T03:17:08;8.65;;;3.60;;
21671;SDS011;10997;52.242;8.168;2023-12-28T03:22:11;8.27;;;3.85;;
21671;SDS011;10997;52.242;8.168;2023-12-28T03:27:12;5.28;;;4.10;;
21671;SDS011;10997;52.242;8.168;2023-12-28T03:32:13;6.47;;;3.85;;
21671;SDS011;10997;52.242;8.168;2023-12-28T03:37:14;8.45;;;4.03;;
21671;SDS011;10997;52.242;8.168;2023-12-28T03:42:15;7.03;;;4.20;;
21671;SDS011;10997;52.242;8.168;2023-12-28T03:47:15;5.63;;;3.63;;
21671;SDS011;10997;52.242;8.168;2023-12-28T03:52:16;6.50;;;3.85;;
21671;SDS011;10997;52.242;8.168;2023-12-28T03:57:17;8.38;;;4.07;;
21671;SDS011;10997;52.242;8.168;2023-12-28T04:02:17;6.38;;;4.05;;
21671;SDS011;10997;52.242;8.168;2023-12-28T04:07:18;5.38;;;3.85;;
21671;SDS011;10997;52.242;8.168;2023-12-28T04:12:18;7.05;;;3.63;;
21671;SDS011;10997;52.242;8.168;2023-12-28T04:17:19;6.32;;;3.45;;
21671;SDS011;10997;52.242;8.168;2023-12-28T04:22:20;6.22;;;3.58;;
21671;SDS011;10997;52.242;8.168;2023-12-28T04:27:20;6.43;;;3.83;;
21671;SDS011;10997;52.242;8.168;2023-12-28T04:32:21;6.78;;;3.40;;
21671;SDS011;10997;52.242;8.168;2023-12-28T04:37:24;6.00;;;3.40;;
21671;SDS011;10997;52.242;8.168;2023-12-28T04:42:26;6.03;;;3.80;;
21671;SDS011;10997;52.242;8.168;2023-12-28T04:47:27;5.68;;;3.42;;
21671;SDS011;10997;52.242;8.168;2023-12-28T04:52:28;5.75;;;3.72;;
21671;SDS011;10997;52.242;8.168;2023-12-28T04:57:28;7.60;;;3.75;;
21671;SDS011;10997;52.242;8.168;2023-12-28T05:02:29;7.22;;;3.53;;
21671;SDS011;10997;52.242;8.168;2023-12-28T05:07:29;5.35;;;3.45;;
21671;SDS011;10997;52.242;8.168;2023-12-28T05:12:30;6.43;;;3.30;;
21671;SDS011;10997;52.242;8.168;2023-12-28T05:17:30;6.38;;;2.85;;
21671;SDS011;10997;52.242;8.168;2023-12-28T05:22:31;8.20;;;3.53;;
21671;SDS011;10997;52.242;8.168;2023-12-28T05:27:32;8.40;;;3.40;;
21671;SDS011;10997;52.242;8.168;2023-12-28T05:32:32;7.75;;;3.25;;
21671;SDS011;10997;52.242;8.168;2023-12-28T05:37:33;4.85;;;2.97;;
21671;SDS011;10997;52.242;8.168;2023-12-28T05:42:33;6.75;;;3.35;;
21671;SDS011;10997;52.242;8.168;2023-12-28T05:47:34;6.78;;;3.38;;
21671;SDS011;10997;52.242;8.168;2023-12-28T05:52:35;5.22;;;3.22;;
21671;SDS011;10997;52.242;8.168;2023-12-28T05:57:35;6.28;;;2.90;;
21671;SDS011;10997;52.242;8.168;2023-12-28T06:02:36;7.43;;;3.03;;
21671;SDS011;10997;52.242;8.168;2023-12-28T06:07:37;8.73;;;3.20;;
21671;SDS011;10997;52.242;8.168;2023-12-28T06:12:37;11.65;;;3.45;;
21671;SDS011;10997;52.242;8.168;2023-12-28T06:17:38;5.43;;;3.10;;
21671;SDS011;10997;52.242;8.168;2023-12-28T06:22:38;6.53;;;3.25;;
21671;SDS011;10997;52.242;8.168;2023-12-28T06:27:39;7.10;;;2.55;;
21671;SDS011;10997;52.242;8.168;2023-12-28T06:32:40;8.32;;;2.90;;
21671;SDS011;10997;52.242;8.168;2023-12-28T06:37:41;10.30;;;2.90;;
21671;SDS011;10997;52.242;8.168;2023-12-28T06:42:42;9.65;;;2.70;;
21671;SDS011;10997;52.242;8.168;2023-12-28T06:47:43;8.85;;;3.20;;
21671;SDS011;10997;52.242;8.168;2023-12-28T06:52:44;7.57;;;2.67;;
21671;SDS011;10997;52.242;8.168;2023-12-28T06:57:45;8.20;;;3.25;;
21671;SDS011;10997;52.242;8.168;2023-12-28T07:02:45;7.68;;;2.85;;
21671;SDS011;10997;52.242;8.168;2023-12-28T07:07:46;8.80;;;2.83;;
21671;SDS011;10997;52.242;8.168;2023-12-28T07:12:46;8.38;;;2.53;;
21671;SDS011;10997;52.242;8.168;2023-12-28T07:17:47;8.35;;;2.70;;
21671;SDS011;10997;52.242;8.168;2023-12-28T07:22:48;7.63;;;2.50;;
21671;SDS011;10997;52.242;8.168;2023-12-28T07:27:48;9.93;;;2.40;;
21671;SDS011;10997;52.242;8.168;2023-12-28T07:32:49;8.82;;;2.42;;
21671;SDS011;10997;52.242;8.168;2023-12-28T07:37:49;5.95;;;2.30;;
21671;SDS011;10997;52.242;8.168;2023-12-28T07:42:50;11.40;;;2.53;;
21671;SDS011;10997;52.242;8.168;2023-12-28T07:47:51;7.78;;;2.70;;
21671;SDS011;10997;52.242;8.168;2023-12-28T07:52:51;13.57;;;2.63;;
21671;SDS011;10997;52.242;8.168;2023-12-28T07:57:52;10.82;;;2.58;;
21671;SDS011;10997;52.242;8.168;2023-12-28T08:02:52;9.98;;;2.50;;
21671;SDS011;10997;52.242;8.168;2023-12-28T08:07:53;8.93;;;2.97;;
21671;SDS011;10997;52.242;8.168;2023-12-28T08:12:54;7.55;;;2.63;;
21671;SDS011;10997;52.242;8.168;2023-12-28T08:17:54;8.50;;;2.83;;
21671;SDS011;10997;52.242;8.168;2023-12-28T08:22:55;8.88;;;2.28;;
21671;SDS011;10997;52.242;8.168;2023-12-28T08:27:55;7.97;;;2.45;;
21671;SDS011;10997;52.242;8.168;2023-12-28T08:32:56;7.10;;;2.28;;
21671;SDS011;10997;52.242;8.168;2023-12-28T08:37:57;8.90;;;2.50;;
21671;SDS011;10997;52.242;8.168;2023-12-28T08:42:58;8.57;;;2.22;;
21671;SDS011;10997;52.242;8.168;2023-12-28T08:47:58;9.38;;;2.10;;
21671;SDS011;10997;52.242;8.168;2023-12-28T08:52:59;8.43;;;2.28;;
21671;SDS011;10997;52.242;8.168;2023-12-28T08:57:59;7.63;;;2.28;;
21671;SDS011;10997;52.242;8.168;2023-12-28T09:03:00;10.00;;;2.50;;
21671;SDS011;10997;52.242;8.168;2023-12-28T09:08:01;9.93;;;2.50;;
21671;SDS011;10997;52.242;8.168;2023-12-28T09:13:03;11.63;;;2.78;;
21671;SDS011;10997;52.242;8.168;2023-12-28T09:18:05;9.02;;;2.50;;
21671;SDS011;10997;52.242;8.168;2023-12-28T09:23:06;7.70;;;2.20;;
21671;SDS011;10997;52.242;8.168;2023-12-28T09:28:07;8.73;;;2.58;;
21671;SDS011;10997;52.242;8.168;2023-12-28T09:33:08;14.32;;;3.00;;
21671;SDS011;10997;52.242;8.168;2023-12-28T09:38:08;14.40;;;2.70;;
21671;SDS011;10997;52.242;8.168;2023-12-28T09:43:12;10.00;;;3.00;;
21671;SDS011;10997;52.242;8.168;2023-12-28T09:48:29;13.27;;;3.08;;
21671;SDS011;10997;52.242;8.168;2023-12-28T09:53:31;14.27;;;2.92;;
21671;SDS011;10997;52.242;8.168;2023-12-28T09:58:32;10.07;;;2.78;;
21671;SDS011;10997;52.242;8.168;2023-12-28T10:03:35;11.35;;;2.70;;
21671;SDS011;10997;52.242;8.168;2023-12-28T10:08:36;12.88;;;2.80;;
21671;SDS011;10997;52.242;8.168;2023-12-28T10:13:44;17.08;;;2.95;;
21671;SDS011;10997;52.242;8.168;2023-12-28T10:18:45;13.52;;;3.00;;
21671;SDS011;10997;52.242;8.168;2023-12-28T10:23:46;13.15;;;2.45;;
21671;SDS011;10997;52.242;8.168;2023-12-28T10:28:47;11.73;;;3.13;;
21671;SDS011;10997;52.242;8.168;2023-12-28T10:33:47;8.88;;;2.50;;
21671;SDS011;10997;52.242;8.168;2023-12-28T10:38:48;12.23;;;2.78;;
21671;SDS011;10997;52.242;8.168;2023-12-28T10:44:05;18.58;;;3.47;;
21671;SDS011;10997;52.242;8.168;2023-12-28T10:49:08;15.63;;;2.85;;
21671;SDS011;10997;52.242;8.168;2023-12-28T10:59:32;14.50;;;2.65;;
21671;SDS011;10997;52.242;8.168;2023-12-28T11:04:44;12.52;;;2.75;;
21671;SDS011;10997;52.242;8.168;2023-12-28T11:09:48;15.63;;;3.08;;
21671;SDS011;10997;52.242;8.168;2023-12-28T11:14:49;12.75;;;3.05;;
21671;SDS011;10997;52.242;8.168;2023-12-28T11:19:53;12.30;;;2.80;;
21671;SDS011;10997;52.242;8.168;2023-12-28T11:24:55;14.70;;;3.05;;
21671;SDS011;10997;52.242;8.168;2023-12-28T11:29:56;17.80;;;2.70;;
21671;SDS011;10997;52.242;8.168;2023-12-28T11:34:57;12.73;;;3.17;;
21671;SDS011;10997;52.242;8.168;2023-12-28T11:40:09;16.05;;;3.28;;
21671;SDS011;10997;52.242;8.168;2023-12-28T11:45:17;20.00;;;3.07;;
21671;SDS011;10997;52.242;8.168;2023-12-28T11:50:25;14.27;;;3.05;;
21671;SDS011;10997;52.242;8.168;2023-12-28T11:55:25;11.10;;;2.83;;
21671;SDS011;10997;52.242;8.168;2023-12-28T12:00:26;13.80;;;2.95;;
21671;SDS011;10997;52.242;8.168;2023-12-28T12:05:27;12.27;;;3.08;;
21671;SDS011;10997;52.242;8.168;2023-12-28T12:10:28;16.13;;;2.83;;
21671;SDS011;10997;52.242;8.168;2023-12-28T12:15:29;18.10;;;3.35;;
21671;SDS011;10997;52.242;8.168;2023-12-28T12:20:30;12.13;;;2.60;;
21671;SDS011;10997;52.242;8.168;2023-12-28T12:25:30;17.48;;;3.40;;
21671;SDS011;10997;52.242;8.168;2023-12-28T12:30:31;15.65;;;2.92;;
21671;SDS011;10997;52.242;8.168;2023-12-28T12:35:32;16.67;;;3.17;;
21671;SDS011;10997;52.242;8.168;2023-12-28T12:40:32;14.65;;;3.13;;
21671;SDS011;10997;52.242;8.168;2023-12-28T12:45:33;16.38;;;3.05;;
21671;SDS011;10997;52.242;8.168;2023-12-28T12:50:35;10.13;;;2.70;;
21671;SDS011;10997;52.242;8.168;2023-12-28T12:55:36;13.48;;;2.67;;
21671;SDS011;10997;52.242;8.168;2023-12-28T13:00:42;12.90;;;3.10;;
21671;SDS011;10997;52.242;8.168;2023-12-28T13:05:44;19.42;;;3.67;;
21671;SDS011;10997;52.242;8.168;2023-12-28T13:10:45;12.13;;;2.38;;
21671;SDS011;10997;52.242;8.168;2023-12-28T13:15:46;18.45;;;3.08;;
21671;SDS011;10997;52.242;8.168;2023-12-28T13:20:46;13.02;;;2.92;;
21671;SDS011;10997;52.242;8.168;2023-12-28T13:25:47;17.23;;;3.08;;
21671;SDS011;10997;52.242;8.168;2023-12-28T13:30:48;12.20;;;2.85;;
21671;SDS011;10997;52.242;8.168;2023-12-28T13:35:50;17.80;;;2.95;;
21671;SDS011;10997;52.242;8.168;2023-12-28T13:40:51;14.27;;;3.13;;
21671;SDS011;10997;52.242;8.168;2023-12-28T13:45:52;12.10;;;2.70;;
21671;SDS011;10997;52.242;8.168;2023-12-28T13:50:52;15.40;;;2.80;;
21671;SDS011;10997;52.242;8.168;2023-12-28T13:55:53;16.20;;;2.75;;
21671;SDS011;10997;52.242;8.168;2023-12-28T14:00:53;12.73;;;2.35;;
21671;SDS011;10997;52.242;8.168;2023-12-28T14:05:54;16.05;;;3.05;;
21671;SDS011;10997;52.242;8.168;2023-12-28T14:10:55;16.48;;;3.20;;
21671;SDS011;10997;52.242;8.168;2023-12-28T14:15:55;11.20;;;2.53;;
21671;SDS011;10997;52.242;8.168;2023-12-28T14:20:56;12.75;;;3.03;;
21671;SDS011;10997;52.242;8.168;2023-12-28T14:25:57;13.20;;;3.10;;
21671;SDS011;10997;52.242;8.168;2023-12-28T14:30:58;16.27;;;2.70;;
21671;SDS011;10997;52.242;8.168;2023-12-28T14:35:58;16.45;;;3.17;;
21671;SDS011;10997;52.242;8.168;2023-12-28T14:41:00;11.88;;;3.03;;
21671;SDS011;10997;52.242;8.168;2023-12-28T14:46:01;12.27;;;2.75;;
21671;SDS011;10997;52.242;8.168;2023-12-28T14:51:01;12.85;;;2.80;;
21671;SDS011;10997;52.242;8.168;2023-12-28T14:56:03;16.10;;;3.22;;
21671;SDS011;10997;52.242;8.168;2023-12-28T15:01:05;13.73;;;2.90;;
21671;SDS011;10997;52.242;8.168;2023-12-28T15:06:06;19.20;;;3.00;;
21671;SDS011;10997;52.242;8.168;2023-12-28T15:11:07;11.70;;;2.75;;
21671;SDS011;10997;52.242;8.168;2023-12-28T15:16:10;14.07;;;3.08;;
21671;SDS011;10997;52.242;8.168;2023-12-28T15:21:11;17.92;;;2.97;;
21671;SDS011;10997;52.242;8.168;2023-12-28T15:26:13;14.73;;;3.28;;
21671;SDS011;10997;52.242;8.168;2023-12-28T15:31:16;16.17;;;2.80;;
21671;SDS011;10997;52.242;8.168;2023-12-28T15:36:17;14.88;;;3.47;;
21671;SDS011;10997;52.242;8.168;2023-12-28T15:41:17;16.23;;;3.05;;
21671;SDS011;10997;52.242;8.168;2023-12-28T15:46:18;16.08;;;4.38;;
21671;SDS011;10997;52.242;8.168;2023-12-28T15:51:19;14.80;;;3.13;;
21671;SDS011;10997;52.242;8.168;2023-12-28T15:56:20;16.52;;;2.88;;
21671;SDS011;10997;52.242;8.168;2023-12-28T16:01:20;14.52;;;2.78;;
21671;SDS011;10997;52.242;8.168;2023-12-28T16:06:21;14.43;;;2.78;;
21671;SDS011;10997;52.242;8.168;2023-12-28T16:11:22;16.48;;;3.00;;
21671;SDS011;10997;52.242;8.168;2023-12-28T16:16:22;16.05;;;2.80;;
21671;SDS011;10997;52.242;8.168;2023-12-28T16:21:23;16.30;;;2.55;;
21671;SDS011;10997;52.242;8.168;2023-12-28T16:26:24;11.50;;;2.50;;
21671;SDS011;10997;52.242;8.168;2023-12-28T16:31:25;11.95;;;2.40;;
21671;SDS011;10997;52.242;8.168;2023-12-28T16:36:26;17.15;;;3.13;;
21671;SDS011;10997;52.242;8.168;2023-12-28T16:41:26;17.83;;;2.70;;
21671;SDS011;10997;52.242;8.168;2023-12-28T16:46:28;22.83;;;3.00;;
21671;SDS011;10997;52.242;8.168;2023-12-28T16:51:29;12.50;;;2.50;;
21671;SDS011;10997;52.242;8.168;2023-12-28T16:56:30;11.73;;;2.30;;
21671;SDS011;10997;52.242;8.168;2023-12-28T17:01:31;10.55;;;2.55;;
21671;SDS011;10997;52.242;8.168;2023-12-28T17:06:33;9.32;;;1.92;;
21671;SDS011;10997;52.242;8.168;2023-12-28T17:11:35;13.20;;;2.97;;
21671;SDS011;10997;52.242;8.168;2023-12-28T17:16:36;16.48;;;2.67;;
21671;SDS011;10997;52.242;8.168;2023-12-28T17:21:38;10.15;;;2.25;;
21671;SDS011;10997;52.242;8.168;2023-12-28T17:26:42;9.07;;;2.05;;
21671;SDS011;10997;52.242;8.168;2023-12-28T17:31:47;15.57;;;2.90;;
21671;SDS011;10997;52.242;8.168;2023-12-28T17:36:50;12.60;;;2.47;;
21671;SDS011;10997;52.242;8.168;2023-12-28T17:41:51;10.50;;;2.55;;
21671;SDS011;10997;52.242;8.168;2023-12-28T17:46:53;12.93;;;2.38;;
21671;SDS011;10997;52.242;8.168;2023-12-28T17:51:57;14.82;;;2.85;;
21671;SDS011;10997;52.242;8.168;2023-12-28T17:56:59;16.98;;;2.90;;
21671;SDS011;10997;52.242;8.168;2023-12-28T18:02:01;15.93;;;2.47;;
21671;SDS011;10997;52.242;8.168;2023-12-28T18:07:02;10.18;;;2.38;;
21671;SDS011;10997;52.242;8.168;2023-12-28T18:12:03;12.95;;;2.63;;
21671;SDS011;10997;52.242;8.168;2023-12-28T18:17:04;9.52;;;2.33;;
21671;SDS011;10997;52.242;8.168;2023-12-28T18:22:04;9.45;;;2.70;;
21671;SDS011;10997;52.242;8.168;2023-12-28T18:27:05;13.90;;;2.63;;
21671;SDS011;10997;52.242;8.168;2023-12-28T18:32:06;12.80;;;2.17;;
21671;SDS011;10997;52.242;8.168;2023-12-28T18:37:07;11.63;;;2.35;;
21671;SDS011;10997;52.242;8.168;2023-12-28T18:42:08;14.95;;;2.80;;
21671;SDS011;10997;52.242;8.168;2023-12-28T18:47:09;11.63;;;2.40;;
21671;SDS011;10997;52.242;8.168;2023-12-28T18:52:10;14.88;;;3.03;;
21671;SDS011;10997;52.242;8.168;2023-12-28T18:57:10;11.98;;;2.55;;
21671;SDS011;10997;52.242;8.168;2023-12-28T19:02:11;10.68;;;2.63;;
21671;SDS011;10997;52.242;8.168;2023-12-28T19:07:12;9.85;;;2.47;;
21671;SDS011;10997;52.242;8.168;2023-12-28T19:12:12;14.98;;;2.90;;
21671;SDS011;10997;52.242;8.168;2023-12-28T19:17:13;12.55;;;2.58;;
21671;SDS011;10997;52.242;8.168;2023-12-28T19:22:13;13.73;;;2.60;;
21671;SDS011;10997;52.242;8.168;2023-12-28T19:27:14;11.70;;;2.10;;
21671;SDS011;10997;52.242;8.168;2023-12-28T19:32:15;13.43;;;2.40;;
21671;SDS011;10997;52.242;8.168;2023-12-28T19:37:16;11.48;;;2.78;;
21671;SDS011;10997;52.242;8.168;2023-12-28T19:42:17;9.23;;;2.53;;
21671;SDS011;10997;52.242;8.168;2023-12-28T19:47:17;11.73;;;2.55;;
21671;SDS011;10997;52.242;8.168;2023-12-28T19:52:18;11.95;;;2.35;;
21671;SDS011;10997;52.242;8.168;2023-12-28T19:57:21;11.73;;;2.15;;
21671;SDS011;10997;52.242;8.168;2023-12-28T20:02:22;10.57;;;2.22;;
21671;SDS011;10997;52.242;8.168;2023-12-28T20:07:25;9.18;;;2.47;;
21671;SDS011;10997;52.242;8.168;2023-12-28T20:12:26;12.77;;;2.45;;
21671;SDS011;10997;52.242;8.168;2023-12-28T20:17:26;11.15;;;2.30;;
21671;SDS011;10997;52.242;8.168;2023-12-28T20:22:27;7.82;;;1.92;;
21671;SDS011;10997;52.242;8.168;2023-12-28T20:27:28;9.20;;;2.13;;
21671;SDS011;10997;52.242;8.168;2023-12-28T20:32:29;6.53;;;1.77;;
21671;SDS011;10997;52.242;8.168;2023-12-28T20:37:29;13.25;;;2.58;;
21671;SDS011;10997;52.242;8.168;2023-12-28T20:42:30;12.55;;;2.65;;
21671;SDS011;10997;52.242;8.168;2023-12-28T20:47:31;13.07;;;2.33;;
21671;SDS011;10997;52.242;8.168;2023-12-28T20:52:31;9.88;;;2.13;;
21671;SDS011;10997;52.242;8.168;2023-12-28T20:57:32;10.80;;;2.25;;
21671;SDS011;10997;52.242;8.168;2023-12-28T21:02:32;10.35;;;2.20;;
21671;SDS011;10997;52.242;8.168;2023-12-28T21:07:33;9.73;;;2.42;;
21671;SDS011;10997;52.242;8.168;2023-12-28T21:12:34;10.23;;;2.67;;
21671;SDS011;10997;52.242;8.168;2023-12-28T21:17:37;14.48;;;2.58;;
21671;SDS011;10997;52.242;8.168;2023-12-28T21:22:38;12.38;;;2.90;;
21671;SDS011;10997;52.242;8.168;2023-12-28T21:27:38;10.23;;;2.80;;
21671;SDS011;10997;52.242;8.168;2023-12-28T21:32:39;9.65;;;2.28;;
21671;SDS011;10997;52.242;8.168;2023-12-28T21:37:40;13.35;;;2.60;;
21671;SDS011;10997;52.242;8.168;2023-12-28T21:42:40;9.05;;;2.25;;
21671;SDS011;10997;52.242;8.168;2023-12-28T21:47:41;8.15;;;2.25;;
21671;SDS011;10997;52.242;8.168;2023-12-28T21:52:42;9.18;;;2.95;;
21671;SDS011;10997;52.242;8.168;2023-12-28T21:57:44;13.23;;;3.05;;
21671;SDS011;10997;52.242;8.168;2023-12-28T22:02:45;9.55;;;2.38;;
21671;SDS011;10997;52.242;8.168;2023-12-28T22:07:45;11.80;;;2.30;;
21671;SDS011;10997;52.242;8.168;2023-12-28T22:12:46;9.25;;;2.38;;
21671;SDS011;10997;52.242;8.168;2023-12-28T22:17:46;8.95;;;2.33;;
21671;SDS011;10997;52.242;8.168;2023-12-28T22:22:47;13.93;;;2.50;;
21671;SDS011;10997;52.242;8.168;2023-12-28T22:27:48;16.60;;;2.63;;
21671;SDS011;10997;52.242;8.168;2023-12-28T22:32:49;8.25;;;2.40;;
21671;SDS011;10997;52.242;8.168;2023-12-28T22:37:49;11.52;;;2.90;;
21671;SDS011;10997;52.242;8.168;2023-12-28T22:42:50;7.82;;;2.30;;
21671;SDS011;10997;52.242;8.168;2023-12-28T22:47:50;11.90;;;2.22;;
21671;SDS011;10997;52.242;8.168;2023-12-28T22:52:51;7.57;;;2.22;;
21671;SDS011;10997;52.242;8.168;2023-12-28T22:57:52;7.80;;;1.80;;
21671;SDS011;10997;52.242;8.168;2023-12-28T23:02:57;7.57;;;1.63;;
21671;SDS011;10997;52.242;8.168;2023-12-28T23:07:58;11.07;;;2.30;;
21671;SDS011;10997;52.242;8.168;2023-12-28T23:12:59;10.70;;;2.60;;
21671;SDS011;10997;52.242;8.168;2023-12-28T23:18:00;9.02;;;2.13;;
21671;SDS011;10997;52.242;8.168;2023-12-28T23:23:01;10.57;;;2.30;;
21671;SDS011;10997;52.242;8.168;2023-12-28T23:28:04;8.13;;;1.80;;
21671;SDS011;10997;52.242;8.168;2023-12-28T23:33:06;11.02;;;2.22;;
21671;SDS011;10997;52.242;8.168;2023-12-28T23:38:06;11.32;;;2.42;;
21671;SDS011;10997;52.242;8.168;2023-12-28T23:43:07;9.25;;;2.38;;
21671;SDS011;10997;52.242;8.168;2023-12-28T23:48:08;13.65;;;2.88;;
21671;SDS011;10997;52.242;8.168;2023-12-28T23:53:08;10.73;;;2.30;;
21671;SDS011;10997;52.242;8.168;2023-12-28T23:58:09;13.25;;;2.22;;
